createdAt,value
2023-04-27T00:01:56.674Z,5.60
2023-04-27T00:04:25.305Z,5.20
2023-04-27T00:06:54.061Z,5.53
2023-04-27T00:09:23.896Z,6.35
2023-04-27T00:11:52.331Z,6.00
2023-04-27T00:14:20.992Z,5.93
2023-04-27T00:16:49.669Z,5.55
2023-04-27T00:19:18.211Z,5.78
2023-04-27T00:21:47.204Z,6.63
2023-04-27T00:24:16.011Z,5.90
2023-04-27T00:26:46.106Z,6.20
2023-04-27T00:29:14.740Z,4.88
2023-04-27T00:31:43.340Z,6.65
2023-04-27T00:34:11.788Z,5.82
2023-04-27T00:36:40.214Z,6.17
2023-04-27T00:39:09.171Z,6.05
2023-04-27T00:41:39.427Z,6.55
2023-04-27T00:44:09.341Z,6.38
2023-04-27T00:46:37.838Z,5.68
2023-04-27T00:49:06.430Z,5.88
2023-04-27T00:51:34.829Z,5.90
2023-04-27T00:54:03.444Z,6.13
2023-04-27T00:56:31.900Z,5.88
2023-04-27T00:59:00.945Z,5.90
2023-04-27T01:01:31.447Z,5.78
2023-04-27T01:04:00.095Z,5.90
2023-04-27T01:06:29.779Z,5.40
2023-04-27T01:08:58.201Z,6.28
2023-04-27T01:11:26.785Z,6.03
2023-04-27T01:13:56.941Z,6.53
2023-04-27T01:16:25.474Z,5.68
2023-04-27T01:18:55.676Z,5.75
2023-04-27T01:21:24.112Z,6.43
2023-04-27T01:23:54.005Z,5.68
2023-04-27T01:26:22.522Z,6.40
2023-04-27T01:28:51.104Z,6.45
2023-04-27T01:31:19.558Z,6.57
2023-04-27T01:33:47.974Z,6.97
2023-04-27T01:36:16.449Z,6.33
2023-04-27T01:38:45.069Z,6.65
2023-04-27T01:41:14.894Z,6.57
2023-04-27T01:43:43.789Z,6.43
2023-04-27T01:46:12.971Z,6.18
2023-04-27T01:48:41.914Z,6.55
2023-04-27T01:51:10.422Z,6.65
2023-04-27T01:53:38.870Z,6.17
2023-04-27T01:56:07.799Z,6.35
2023-04-27T01:58:37.630Z,6.33
2023-04-27T02:01:06.101Z,6.67
2023-04-27T02:03:34.686Z,6.67
2023-04-27T02:06:03.276Z,6.43
2023-04-27T02:08:31.694Z,6.57
2023-04-27T02:11:00.167Z,6.53
2023-04-27T02:13:28.613Z,6.32
2023-04-27T02:15:58.467Z,6.70
2023-04-27T02:18:27.879Z,7.13
2023-04-27T02:20:56.334Z,5.93
2023-04-27T02:23:24.804Z,6.65
2023-04-27T02:25:53.259Z,6.70
2023-04-27T02:28:21.723Z,6.80
2023-04-27T02:30:50.732Z,7.00
2023-04-27T02:33:21.400Z,7.25
2023-04-27T02:35:49.838Z,7.40
2023-04-27T02:38:18.258Z,7.00
2023-04-27T02:40:46.726Z,7.90
2023-04-27T02:43:15.122Z,7.30
2023-04-27T02:45:43.568Z,6.90
2023-04-27T02:48:11.994Z,7.15
2023-04-27T02:50:43.676Z,7.20
2023-04-27T02:53:12.140Z,7.57
2023-04-27T02:55:40.631Z,7.20
2023-04-27T02:58:09.114Z,7.97
2023-04-27T03:00:37.544Z,7.90
2023-04-27T03:03:06.502Z,7.80
2023-04-27T03:05:35.043Z,7.47
2023-04-27T03:08:04.852Z,8.13
2023-04-27T03:10:33.293Z,8.00
2023-04-27T03:13:01.699Z,8.13
2023-04-27T03:15:30.130Z,7.40
2023-04-27T03:17:58.594Z,7.93
2023-04-27T03:20:27.084Z,7.13
2023-04-27T03:22:55.515Z,7.90
2023-04-27T03:25:25.508Z,7.10
2023-04-27T03:27:53.945Z,6.85
2023-04-27T03:30:22.566Z,7.07
2023-04-27T03:32:51.011Z,6.57
2023-04-27T03:35:19.573Z,7.15
2023-04-27T03:37:48.035Z,6.60
2023-04-27T03:40:16.506Z,6.68
2023-04-27T03:42:46.301Z,6.72
2023-04-27T03:45:16.528Z,6.75
2023-04-27T03:47:44.981Z,6.50
2023-04-27T03:50:13.508Z,6.20
2023-04-27T03:52:41.999Z,6.43
2023-04-27T03:55:10.972Z,5.97
2023-04-27T03:57:39.562Z,5.93
2023-04-27T04:00:11.760Z,6.17
2023-04-27T04:02:40.474Z,6.07
2023-04-27T04:05:09.389Z,6.17
2023-04-27T04:07:37.964Z,6.17
2023-04-27T04:10:06.997Z,6.17
2023-04-27T04:12:35.477Z,6.13
2023-04-27T04:15:04.208Z,6.20
2023-04-27T04:17:34.229Z,6.17
2023-04-27T04:20:03.068Z,6.43
2023-04-27T04:22:31.480Z,6.33
2023-04-27T04:24:59.927Z,5.93
2023-04-27T04:27:28.362Z,6.27
2023-04-27T04:29:56.991Z,6.23
2023-04-27T04:32:28.412Z,6.63
2023-04-27T04:34:58.988Z,6.70
2023-04-27T04:37:27.574Z,6.10
2023-04-27T04:39:56.190Z,6.50
2023-04-27T04:42:24.670Z,6.27
2023-04-27T04:44:53.498Z,6.63
2023-04-27T04:47:22.340Z,6.17
2023-04-27T04:49:50.830Z,6.63
2023-04-27T04:52:21.296Z,5.93
2023-04-27T04:54:49.804Z,6.20
2023-04-27T04:57:18.221Z,6.70
2023-04-27T04:59:46.660Z,8.00
2023-04-27T05:02:15.155Z,7.03
2023-04-27T05:04:43.685Z,7.90
2023-04-27T05:07:15.015Z,6.68
2023-04-27T05:09:45.649Z,7.05
2023-04-27T05:12:14.190Z,7.25
2023-04-27T05:14:43.798Z,6.82
2023-04-27T05:17:12.714Z,7.40
2023-04-27T05:19:41.307Z,8.43
2023-04-27T05:22:09.846Z,7.33
2023-04-27T05:24:38.585Z,7.95
2023-04-27T05:27:08.457Z,7.32
2023-04-27T05:29:36.939Z,6.93
2023-04-27T05:32:05.622Z,7.38
2023-04-27T05:34:34.252Z,8.10
2023-04-27T05:37:03.160Z,7.30
2023-04-27T05:39:31.682Z,7.50
2023-04-27T05:42:00.152Z,8.27
2023-04-27T05:44:30.032Z,7.82
2023-04-27T05:46:58.460Z,7.40
2023-04-27T05:49:27.187Z,7.65
2023-04-27T05:51:55.631Z,7.43
2023-04-27T05:54:24.229Z,7.20
2023-04-27T05:56:52.989Z,7.18
2023-04-27T05:59:21.916Z,7.25
2023-04-27T06:01:51.820Z,6.90
2023-04-27T06:04:20.596Z,6.82
2023-04-27T06:06:49.148Z,7.22
2023-04-27T06:09:17.565Z,6.90
2023-04-27T06:11:47.496Z,5.97
2023-04-27T06:14:16.368Z,6.40
2023-04-27T06:16:44.876Z,5.28
2023-04-27T06:19:15.051Z,6.07
2023-04-27T06:21:43.879Z,6.25
2023-04-27T06:24:12.336Z,5.93
2023-04-27T06:26:40.799Z,5.40
2023-04-27T06:29:09.257Z,5.85
2023-04-27T06:31:37.773Z,5.50
2023-04-27T06:34:06.656Z,5.15
2023-04-27T06:36:36.498Z,4.50
2023-04-27T06:39:05.005Z,5.20
2023-04-27T06:41:33.865Z,4.85
2023-04-27T06:44:02.364Z,4.97
2023-04-27T06:46:31.034Z,4.65
2023-04-27T06:48:59.492Z,4.72
2023-04-27T06:51:28.434Z,4.85
2023-04-27T06:53:58.277Z,4.63
2023-04-27T06:56:26.733Z,4.20
2023-04-27T06:58:55.152Z,4.65
2023-04-27T07:01:23.636Z,4.75
2023-04-27T07:03:52.298Z,5.35
2023-04-27T07:06:20.866Z,4.97
2023-04-27T07:08:49.281Z,6.22
2023-04-27T07:11:19.249Z,5.47
2023-04-27T07:13:47.765Z,5.25
2023-04-27T07:16:17.420Z,6.53
2023-04-27T07:18:46.141Z,5.32
2023-04-27T07:21:14.645Z,5.35
2023-04-27T07:23:43.094Z,4.80
2023-04-27T07:26:11.625Z,6.10
2023-04-27T07:28:41.456Z,5.53
2023-04-27T07:31:10.040Z,5.72
2023-04-27T07:33:38.580Z,5.75
2023-04-27T07:36:07.980Z,5.85
2023-04-27T07:38:38.485Z,6.05
2023-04-27T07:41:07.611Z,5.30
2023-04-27T07:43:36.197Z,5.07
2023-04-27T07:46:06.463Z,6.47
2023-04-27T07:48:34.984Z,14.85
2023-04-27T07:51:03.579Z,9.10
2023-04-27T07:53:32.251Z,9.93
2023-04-27T07:56:01.052Z,4.30
2023-04-27T07:58:29.546Z,4.43
2023-04-27T08:00:58.066Z,4.15
2023-04-27T08:03:28.374Z,4.15
2023-04-27T08:05:57.470Z,4.88
2023-04-27T08:08:26.240Z,4.30
2023-04-27T08:10:54.710Z,4.90
2023-04-27T08:13:24.809Z,4.55
2023-04-27T08:15:58.447Z,4.25
2023-04-27T08:18:28.599Z,4.25
2023-04-27T08:20:57.185Z,4.50
2023-04-27T08:23:28.752Z,4.45
2023-04-27T08:25:57.544Z,4.50
2023-04-27T08:28:26.025Z,4.05
2023-04-27T08:30:54.617Z,4.18
2023-04-27T08:33:23.215Z,3.65
2023-04-27T08:35:55.678Z,3.55
2023-04-27T08:38:25.685Z,2.90
2023-04-27T08:40:54.307Z,3.80
2023-04-27T08:43:22.769Z,3.63
2023-04-27T08:45:52.941Z,3.45
2023-04-27T08:48:24.505Z,3.78
2023-04-27T08:50:54.735Z,3.17
2023-04-27T08:53:23.646Z,3.55
2023-04-27T08:55:52.566Z,3.30
2023-04-27T08:58:21.003Z,3.70
2023-04-27T09:00:52.504Z,3.53
2023-04-27T09:03:21.921Z,3.05
2023-04-27T09:06:03.556Z,3.65
2023-04-27T09:08:44.547Z,3.65
2023-04-27T09:11:13.218Z,3.38
2023-04-27T09:13:42.427Z,3.95
2023-04-27T09:16:11.506Z,3.90
2023-04-27T09:18:43.695Z,3.20
2023-04-27T09:21:12.566Z,3.55
2023-04-27T09:23:41.943Z,3.28
2023-04-27T09:26:11.770Z,3.95
2023-04-27T09:28:41.393Z,11.05
2023-04-27T09:31:10.840Z,3.65
2023-04-27T09:33:39.401Z,2.67
2023-04-27T09:36:08.593Z,3.00
2023-04-27T09:38:37.103Z,2.90
2023-04-27T09:41:05.572Z,2.60
2023-04-27T09:43:35.499Z,2.90
2023-04-27T09:46:06.750Z,3.17
2023-04-27T09:48:35.466Z,3.40
2023-04-27T09:51:04.174Z,3.15
2023-04-27T09:53:36.120Z,3.60
2023-04-27T09:56:12.074Z,3.17
2023-04-27T09:58:52.748Z,3.55
2023-04-27T10:01:25.719Z,3.58
2023-04-27T10:04:03.899Z,3.90
2023-04-27T10:06:47.913Z,3.85
2023-04-27T10:09:17.538Z,3.15
2023-04-27T10:11:47.904Z,3.58
2023-04-27T10:14:19.991Z,4.85
2023-04-27T10:16:49.160Z,3.65
2023-04-27T10:19:17.652Z,3.65
2023-04-27T10:21:57.075Z,3.80
2023-04-27T10:24:38.297Z,3.60
2023-04-27T10:27:07.873Z,3.83
2023-04-27T10:29:41.973Z,3.40
2023-04-27T10:32:11.768Z,3.67
2023-04-27T10:34:41.302Z,3.75
2023-04-27T10:37:10.984Z,4.43
2023-04-27T10:39:47.847Z,4.00
2023-04-27T10:42:28.412Z,3.60
2023-04-27T10:45:00.052Z,3.53
2023-04-27T10:47:38.515Z,3.67
2023-04-27T10:50:08.101Z,3.78
2023-04-27T10:52:36.696Z,3.78
2023-04-27T10:55:18.360Z,3.78
2023-04-27T10:57:51.080Z,3.55
2023-04-27T11:00:25.724Z,4.00
2023-04-27T11:02:54.829Z,3.90
2023-04-27T11:05:24.833Z,3.30
2023-04-27T11:07:53.608Z,3.50
2023-04-27T11:10:22.161Z,3.58
2023-04-27T11:12:50.607Z,3.63
2023-04-27T11:15:19.147Z,3.45
2023-04-27T11:17:49.253Z,3.90
2023-04-27T11:20:26.629Z,3.50
2023-04-27T11:22:55.259Z,3.90
2023-04-27T11:25:29.148Z,3.42
2023-04-27T11:27:57.653Z,3.30
2023-04-27T11:30:27.432Z,3.60
2023-04-27T11:32:57.451Z,3.60
2023-04-27T11:35:34.839Z,3.78
2023-04-27T11:38:03.471Z,3.42
2023-04-27T11:40:32.402Z,3.50
2023-04-27T11:43:04.086Z,3.55
2023-04-27T11:45:32.697Z,3.75
2023-04-27T11:48:03.888Z,3.75
2023-04-27T11:50:32.462Z,3.78
2023-04-27T11:53:02.862Z,3.95
2023-04-27T11:55:31.759Z,3.50
2023-04-27T11:58:00.340Z,3.35
2023-04-27T12:00:30.121Z,2.63
2023-04-27T12:02:59.882Z,3.08
2023-04-27T12:05:30.206Z,3.50
2023-04-27T12:07:58.945Z,3.30
2023-04-27T12:10:27.472Z,3.97
2023-04-27T12:12:56.055Z,3.95
2023-04-27T12:15:24.677Z,4.13
2023-04-27T12:17:53.276Z,4.00
2023-04-27T12:20:21.955Z,4.40
2023-04-27T12:22:51.842Z,4.13
2023-04-27T12:25:20.945Z,3.90
2023-04-27T12:27:49.427Z,3.70
2023-04-27T12:30:17.875Z,3.30
2023-04-27T12:32:46.355Z,3.50
2023-04-27T12:35:14.883Z,3.58
2023-04-27T12:37:43.521Z,3.78
2023-04-27T12:40:14.281Z,4.40
2023-04-27T12:42:42.892Z,4.07
2023-04-27T12:45:11.726Z,4.28
2023-04-27T12:50:15.783Z,3.95
2023-04-27T12:52:44.218Z,3.53
2023-04-27T12:55:28.933Z,3.92
2023-04-27T12:58:01.390Z,4.05
2023-04-27T13:00:30.556Z,3.83
2023-04-27T13:02:59.871Z,3.92
2023-04-27T13:05:31.257Z,3.90
2023-04-27T13:08:00.459Z,4.20
2023-04-27T13:10:31.164Z,4.22
2023-04-27T13:13:00.114Z,4.90
2023-04-27T13:15:29.726Z,4.30
2023-04-27T13:17:59.073Z,4.68
2023-04-27T13:20:27.864Z,4.40
2023-04-27T13:22:56.459Z,4.47
2023-04-27T13:25:26.936Z,4.35
2023-04-27T13:27:57.980Z,4.60
2023-04-27T13:30:26.519Z,4.90
2023-04-27T13:32:55.269Z,4.50
2023-04-27T13:35:26.518Z,5.00
2023-04-27T13:37:55.047Z,4.85
2023-04-27T13:40:23.608Z,5.45
2023-04-27T13:42:52.085Z,5.03
2023-04-27T13:45:22.386Z,4.80
2023-04-27T13:47:50.900Z,4.38
2023-04-27T13:50:19.417Z,5.53
2023-04-27T13:52:48.059Z,4.70
2023-04-27T13:55:16.542Z,4.40
2023-04-27T13:57:44.968Z,3.85
2023-04-27T14:00:14.232Z,4.50
2023-04-27T14:02:44.127Z,4.30
2023-04-27T14:05:12.764Z,5.65
2023-04-27T14:07:41.351Z,5.10
2023-04-27T14:10:10.318Z,4.97
2023-04-27T14:12:38.844Z,5.15
2023-04-27T14:15:07.635Z,4.85
2023-04-27T14:17:36.117Z,4.40
2023-04-27T14:20:07.000Z,5.25
2023-04-27T14:22:35.897Z,4.70
2023-04-27T14:25:04.645Z,4.85
2023-04-27T14:27:33.072Z,5.40
2023-04-27T14:30:02.232Z,5.15
2023-04-27T14:32:30.727Z,4.13
2023-04-27T14:34:59.558Z,4.88
2023-04-27T14:37:29.400Z,5.00
2023-04-27T14:39:58.873Z,5.38
2023-04-27T14:42:27.612Z,5.20
2023-04-27T14:44:56.499Z,5.07
2023-04-27T14:47:25.079Z,5.47
2023-04-27T14:49:53.672Z,4.80
2023-04-27T14:52:22.133Z,5.03
2023-04-27T14:54:52.213Z,5.25
2023-04-27T14:57:20.896Z,5.00
2023-04-27T14:59:49.411Z,5.50
2023-04-27T15:02:18.701Z,5.47
2023-04-27T15:04:47.614Z,5.50
2023-04-27T15:07:16.117Z,5.10
2023-04-27T15:09:44.665Z,5.22
2023-04-27T15:12:14.541Z,5.53
2023-04-27T15:14:43.034Z,5.00
2023-04-27T15:17:13.326Z,4.95
2023-04-27T15:19:41.824Z,5.20
2023-04-27T15:22:10.735Z,4.70
2023-04-27T15:24:39.268Z,5.47
2023-04-27T15:27:09.744Z,5.80
2023-04-27T15:29:40.109Z,5.28
2023-04-27T15:34:32.644Z,5.53
2023-04-27T15:37:02.906Z,5.00
2023-04-27T15:39:31.813Z,5.25
2023-04-27T15:42:01.527Z,4.93
2023-04-27T15:44:29.996Z,4.63
2023-04-27T15:46:58.480Z,5.43
2023-04-27T15:49:28.485Z,5.05
2023-04-27T15:51:58.332Z,5.28
2023-04-27T15:54:27.062Z,5.40
2023-04-27T15:56:55.512Z,5.40
2023-04-27T15:59:23.974Z,5.47
2023-04-27T16:01:52.419Z,5.22
2023-04-27T16:04:21.363Z,5.25
2023-04-27T16:06:49.936Z,5.05
2023-04-27T16:09:20.230Z,5.50
2023-04-27T16:11:48.861Z,5.03
2023-04-27T16:14:17.310Z,4.85
2023-04-27T16:16:46.127Z,5.35
2023-04-27T16:19:15.369Z,5.68
2023-04-27T16:21:45.046Z,5.53
2023-04-27T16:24:13.528Z,5.45
2023-04-27T16:26:43.841Z,5.15
2023-04-27T16:29:12.742Z,5.40
2023-04-27T16:31:42.753Z,5.32
2023-04-27T16:34:11.406Z,5.60
2023-04-27T16:36:39.980Z,5.45
2023-04-27T16:39:09.575Z,5.45
2023-04-27T16:41:38.276Z,5.10
2023-04-27T16:44:08.213Z,5.30
2023-04-27T16:46:36.965Z,5.63
2023-04-27T16:49:05.858Z,6.10
2023-04-27T16:51:34.652Z,5.72
2023-04-27T16:54:03.612Z,6.57
2023-04-27T16:56:32.592Z,6.25
2023-04-27T16:59:01.386Z,5.78
2023-04-27T17:01:31.334Z,5.45
2023-04-27T17:04:01.325Z,5.82
2023-04-27T17:06:30.163Z,5.70
2023-04-27T17:08:58.893Z,5.80
2023-04-27T17:11:27.524Z,5.55
2023-04-27T17:13:56.316Z,5.57
2023-04-27T17:16:26.965Z,5.82
2023-04-27T17:18:57.301Z,5.68
2023-04-27T17:21:26.876Z,6.05
2023-04-27T17:23:55.725Z,5.70
2023-04-27T17:26:24.251Z,6.00
2023-04-27T17:28:53.135Z,5.15
2023-04-27T17:31:21.640Z,6.03
2023-04-27T17:33:50.142Z,6.50
2023-04-27T17:36:20.029Z,5.78
2023-04-27T17:38:48.822Z,5.50
2023-04-27T17:41:17.284Z,6.00
2023-04-27T17:43:45.852Z,5.70
2023-04-27T17:46:14.659Z,5.95
2023-04-27T17:48:44.174Z,5.55
2023-04-27T17:51:12.627Z,5.70
2023-04-27T17:53:42.440Z,5.57
2023-04-27T17:56:10.952Z,5.45
2023-04-27T17:58:39.375Z,5.70
2023-04-27T18:01:10.038Z,6.28
2023-04-27T18:03:38.726Z,6.10
2023-04-27T18:06:08.116Z,5.85
2023-04-27T18:08:36.578Z,6.13
2023-04-27T18:11:06.785Z,5.82
2023-04-27T18:13:35.307Z,6.40
2023-04-27T18:16:04.214Z,6.68
2023-04-27T18:18:32.751Z,6.10
2023-04-27T18:21:01.366Z,6.00
2023-04-27T18:23:29.874Z,6.00
2023-04-27T18:26:00.637Z,6.28
2023-04-27T18:28:30.674Z,6.28
2023-04-27T18:30:59.478Z,6.05
2023-04-27T18:33:28.043Z,5.88
2023-04-27T18:35:56.603Z,6.55
2023-04-27T18:38:25.051Z,5.95
2023-04-27T18:40:53.544Z,6.47
2023-04-27T18:43:22.164Z,6.78
2023-04-27T18:45:52.669Z,6.55
2023-04-27T18:48:21.379Z,6.18
2023-04-27T18:50:49.848Z,6.45
2023-04-27T18:53:18.339Z,6.90
2023-04-27T18:55:46.816Z,6.40
2023-04-27T18:58:15.996Z,6.13
2023-04-27T19:00:44.468Z,6.72
2023-04-27T19:03:14.627Z,6.45
2023-04-27T19:05:43.936Z,6.55
2023-04-27T19:08:12.532Z,7.10
2023-04-27T19:10:42.287Z,5.75
2023-04-27T19:13:10.793Z,6.75
2023-04-27T19:15:39.895Z,6.38
2023-04-27T19:18:11.176Z,6.13
2023-04-27T19:20:41.793Z,6.10
2023-04-27T19:23:12.571Z,6.65
2023-04-27T19:25:41.450Z,6.25
2023-04-27T19:28:10.427Z,6.45
2023-04-27T19:30:39.122Z,6.18
2023-04-27T19:33:07.671Z,6.30
2023-04-27T19:35:36.366Z,6.38
2023-04-27T19:38:06.619Z,6.47
2023-04-27T19:40:35.437Z,6.20
2023-04-27T19:43:04.463Z,6.00
2023-04-27T19:45:33.548Z,6.65
2023-04-27T19:48:02.131Z,6.13
2023-04-27T19:50:30.620Z,6.18
2023-04-27T19:52:59.315Z,6.40
2023-04-27T19:55:30.861Z,6.65
2023-04-27T19:57:59.392Z,6.22
2023-04-27T20:00:29.631Z,5.80
2023-04-27T20:02:58.232Z,5.82
2023-04-27T20:05:27.071Z,5.80
2023-04-27T20:07:55.610Z,5.80
2023-04-27T20:10:24.083Z,5.85
2023-04-27T20:12:57.090Z,5.75
2023-04-27T20:15:25.836Z,6.45
2023-04-27T20:17:54.646Z,5.47
2023-04-27T20:20:23.688Z,5.82
2023-04-27T20:22:52.193Z,5.18
2023-04-27T20:25:20.859Z,5.32
2023-04-27T20:27:49.305Z,6.05
2023-04-27T20:30:19.349Z,5.18
2023-04-27T20:32:48.667Z,6.25
2023-04-27T20:35:17.194Z,6.20
2023-04-27T20:37:46.141Z,5.38
2023-04-27T20:40:17.920Z,5.80
2023-04-27T20:42:46.796Z,5.88
2023-04-27T20:45:15.356Z,5.75
2023-04-27T20:47:45.564Z,5.72
2023-04-27T20:50:14.267Z,5.50
2023-04-27T20:52:42.894Z,5.90
2023-04-27T20:55:11.448Z,5.18
2023-04-27T20:57:39.888Z,5.57
2023-04-27T21:00:09.994Z,5.53
2023-04-27T21:02:38.974Z,5.32
2023-04-27T21:05:09.175Z,5.47
2023-04-27T21:07:37.731Z,6.05
2023-04-27T21:10:07.160Z,6.18
2023-04-27T21:12:35.741Z,5.80
2023-04-27T21:15:04.245Z,5.00
2023-04-27T21:17:32.831Z,5.75
2023-04-27T21:20:01.539Z,5.55
2023-04-27T21:22:31.334Z,5.13
2023-04-27T21:24:59.767Z,5.32
2023-04-27T21:27:29.583Z,5.55
2023-04-27T21:29:58.012Z,5.32
2023-04-27T21:32:26.449Z,5.35
2023-04-27T21:34:54.875Z,5.60
2023-04-27T21:37:23.310Z,5.63
2023-04-27T21:39:53.165Z,5.25
2023-04-27T21:42:21.677Z,5.18
2023-04-27T21:44:50.119Z,5.38
2023-04-27T21:47:18.577Z,5.57
2023-04-27T21:49:47.090Z,4.95
2023-04-27T21:52:15.570Z,5.10
2023-04-27T21:54:43.977Z,5.63
2023-04-27T21:57:13.828Z,5.03
2023-04-27T21:59:42.379Z,5.45
2023-04-27T22:02:10.978Z,5.25
2023-04-27T22:04:39.643Z,5.47
2023-04-27T22:07:08.964Z,4.75
2023-04-27T22:09:37.638Z,5.07
2023-04-27T22:12:06.581Z,5.60
2023-04-27T22:14:36.487Z,5.15
2023-04-27T22:17:05.013Z,5.28
2023-04-27T22:19:34.029Z,4.65
2023-04-27T22:22:02.600Z,5.00
2023-04-27T22:24:31.379Z,4.82
2023-04-27T22:26:59.955Z,5.22
2023-04-27T22:29:28.562Z,5.47
2023-04-27T22:31:58.410Z,5.03
2023-04-27T22:34:27.383Z,6.03
2023-04-27T22:36:56.935Z,5.10
2023-04-27T22:39:26.392Z,5.20
2023-04-27T22:41:54.861Z,4.85
2023-04-27T22:44:23.392Z,6.00
2023-04-27T22:46:52.171Z,5.50
2023-04-27T22:49:22.255Z,5.35
2023-04-27T22:51:50.674Z,5.50
2023-04-27T22:54:19.099Z,5.80
2023-04-27T22:56:47.535Z,5.55
2023-04-27T22:59:16.008Z,5.43
2023-04-27T23:01:44.426Z,5.10
2023-04-27T23:04:14.078Z,6.15
2023-04-27T23:06:44.460Z,5.00
2023-04-27T23:09:13.020Z,5.13
2023-04-27T23:11:41.464Z,5.00
2023-04-27T23:14:11.669Z,5.32
2023-04-27T23:16:40.541Z,5.70
2023-04-27T23:19:09.156Z,5.93
2023-04-27T23:21:37.705Z,5.53
2023-04-27T23:24:07.947Z,5.70
2023-04-27T23:26:36.370Z,5.80
2023-04-27T23:29:04.834Z,5.68
2023-04-27T23:31:33.377Z,6.22
2023-04-27T23:34:01.892Z,5.90
2023-04-27T23:36:30.812Z,6.30
2023-04-27T23:38:59.268Z,6.05
2023-04-27T23:41:29.067Z,6.03
2023-04-27T23:43:57.578Z,6.45
2023-04-27T23:46:26.099Z,7.00
2023-04-27T23:48:54.545Z,6.93
2023-04-27T23:51:23.081Z,7.07
2023-04-27T23:53:51.564Z,6.65
2023-04-27T23:56:20.018Z,7.03
2023-04-27T23:58:49.858Z,7.57
